首页
METAR-TAF:

METAR-TAF

机场 :

威靈頓國際機場

惠灵顿, 新西兰

纬度: 41-20S, 经度: 174-48E, 海拔: 12米

当前天气观测

该预报发布于29分钟前的08:00 UTC
风速8节,风向北转东北
温度 15°C
湿度 88%
气压 1026 hPa
能见度10公里或以上

METAR: NZWN 050800Z AUTO 02008KT 9999 NCD 15/13 Q1026 NOSIG

时间: 20:29 (08:29 UTC)

预报

该预报发布于3小时和28分钟前的05:01 UTC
预报有效从05日的 06点(UTC)到 06日的 06点(UTC)
风速10节,风向
能见度10公里或以上
1500米以下无云,无积雨云

TAF: NZWN 050501Z 0506/0606 36010KT CAVOK

超过4000个机场的气象观测和天气预报(METAR&TAF报告)。

可查询的气象台以黄色和红色小点在地图上表示。

将鼠标移到小点上方,可查看气象台名称。

然后点击查看天气观测和预报。

如需切换地图:点击带黑十字的绿色按钮放大地图;点击带横线的绿色按钮缩小地图;或者点击绿色箭头查看邻近地区的地图。


METAR-TAF: